createdAt,value
2019-05-01T00:01:27.251Z,97557.98
2019-05-01T00:04:10.217Z,97553.41
2019-05-01T00:06:45.162Z,97554.23
2019-05-01T00:09:16.848Z,97547.20
2019-05-01T00:11:48.511Z,97536.36
2019-05-01T00:14:20.288Z,97547.72
2019-05-01T00:16:52.305Z,97549.88
2019-05-01T00:19:23.861Z,97546.63
2019-05-01T00:21:55.391Z,97548.75
2019-05-01T00:24:27.056Z,97536.86
2019-05-01T00:26:58.826Z,97537.16
2019-05-01T00:29:30.750Z,97529.00
2019-05-01T00:32:02.534Z,97532.50
2019-05-01T00:34:34.180Z,97536.55
2019-05-01T00:37:05.807Z,97526.20
2019-05-01T00:39:37.438Z,97531.34
2019-05-01T00:42:09.003Z,97537.38
2019-05-01T00:44:40.613Z,97539.50
2019-05-01T00:47:12.234Z,97543.00
2019-05-01T00:49:44.795Z,97529.73
2019-05-01T00:52:16.415Z,97528.63
2019-05-01T00:54:49.772Z,97531.05
2019-05-01T00:57:37.285Z,97529.40
2019-05-01T01:00:42.639Z,97530.48
2019-05-01T01:03:04.706Z,97530.48
2019-05-01T01:05:36.294Z,97533.17
2019-05-01T01:08:07.847Z,97522.88
2019-05-01T01:10:39.338Z,97519.37
2019-05-01T01:13:10.851Z,97518.30
2019-05-01T01:15:42.352Z,97526.16
2019-05-01T01:18:13.893Z,97519.44
2019-05-01T01:20:45.455Z,97520.80
2019-05-01T01:23:18.349Z,97528.12
2019-05-01T01:25:49.942Z,97517.60
2019-05-01T01:28:21.729Z,97523.55
2019-05-01T01:30:56.499Z,97519.27
2019-05-01T01:33:27.563Z,97518.39
2019-05-01T01:35:59.161Z,97524.64
2019-05-01T01:38:30.716Z,97525.48
2019-05-01T01:41:02.359Z,97520.33
2019-05-01T01:43:53.020Z,97519.48
2019-05-01T01:46:26.528Z,97510.30
2019-05-01T01:48:59.332Z,97507.89
2019-05-01T01:51:30.978Z,97511.44
2019-05-01T01:54:03.027Z,97500.64
2019-05-01T01:56:34.531Z,97493.61
2019-05-01T01:59:07.275Z,97504.94
2019-05-01T02:02:03.851Z,97505.22
2019-05-01T02:04:54.504Z,97495.13
2019-05-01T02:07:26.180Z,97496.45
2019-05-01T02:09:57.909Z,97493.86
2019-05-01T02:12:29.763Z,97493.87
2019-05-01T02:15:01.368Z,97490.39
2019-05-01T02:17:32.996Z,97487.38
2019-05-01T02:20:05.949Z,97484.23
2019-05-01T02:22:37.479Z,97476.32
2019-05-01T02:25:10.847Z,97470.02
2019-05-01T02:28:10.488Z,97461.63
2019-05-01T02:30:45.890Z,97463.81
2019-05-01T02:33:18.061Z,97457.05
2019-05-01T02:35:50.151Z,97455.91
2019-05-01T02:38:22.419Z,97448.06
2019-05-01T02:40:59.687Z,97452.96
2019-05-01T02:43:34.367Z,97448.78
2019-05-01T02:46:07.055Z,97442.03
2019-05-01T02:48:42.009Z,97442.50
2019-05-01T02:51:14.154Z,97437.23
2019-05-01T02:53:47.370Z,97445.02
2019-05-01T02:56:42.387Z,97439.10
2019-05-01T02:59:15.224Z,97444.19
2019-05-01T03:01:48.176Z,97434.16
2019-05-01T03:04:20.475Z,97433.89
2019-05-01T03:06:52.950Z,97428.80
2019-05-01T03:09:25.281Z,97433.88
2019-05-01T03:11:57.708Z,97425.57
2019-05-01T03:14:32.186Z,97425.87
2019-05-01T03:17:07.996Z,97430.70
2019-05-01T03:19:59.503Z,97429.60
2019-05-01T03:22:43.347Z,97418.77
2019-05-01T03:25:15.090Z,97426.14
2019-05-01T03:27:47.170Z,97428.30
2019-05-01T03:30:18.955Z,97430.48
2019-05-01T03:32:50.769Z,97432.19
2019-05-01T03:35:22.254Z,97432.49
2019-05-01T03:37:54.109Z,97433.53
2019-05-01T03:40:26.374Z,97429.99
2019-05-01T03:42:58.235Z,97428.12
2019-05-01T03:45:33.929Z,97438.41
2019-05-01T03:48:04.922Z,97431.91
2019-05-01T03:50:36.782Z,97428.97
2019-05-01T03:53:08.668Z,97430.89
2019-05-01T03:55:40.464Z,97427.13
2019-05-01T03:58:12.128Z,97422.70
2019-05-01T04:00:54.315Z,97423.17
2019-05-01T04:03:47.677Z,97423.95
2019-05-01T04:06:19.732Z,97419.56
2019-05-01T04:08:51.560Z,97422.20
2019-05-01T04:11:23.306Z,97425.20
2019-05-01T04:13:55.439Z,97422.20
2019-05-01T04:16:27.000Z,97426.21
2019-05-01T04:18:59.197Z,97419.63
2019-05-01T04:21:36.089Z,97421.99
2019-05-01T04:24:08.111Z,97424.88
2019-05-01T04:26:39.733Z,97427.59
2019-05-01T04:29:30.573Z,97420.86
2019-05-01T04:32:52.181Z,97431.38
2019-05-01T04:35:21.740Z,97436.31
2019-05-01T04:37:57.310Z,97447.37
2019-05-01T04:40:29.257Z,97460.17
2019-05-01T04:43:00.761Z,97454.73
2019-05-01T04:45:32.475Z,97450.17
2019-05-01T04:48:04.347Z,97441.91
2019-05-01T04:50:35.952Z,97444.55
2019-05-01T04:53:07.952Z,97445.81
2019-05-01T04:55:39.861Z,97442.77
2019-05-01T04:58:12.058Z,97447.36
2019-05-01T05:00:43.729Z,97451.98
2019-05-01T05:03:18.623Z,97446.22
2019-05-01T05:05:50.306Z,97450.85
2019-05-01T05:08:22.408Z,97451.12
2019-05-01T05:10:55.976Z,97450.91
2019-05-01T05:13:39.706Z,97447.44
2019-05-01T05:16:26.400Z,97447.46
2019-05-01T05:18:58.213Z,97445.14
2019-05-01T05:21:29.917Z,97443.13
2019-05-01T05:24:01.453Z,97438.95
2019-05-01T05:26:33.432Z,97436.27
2019-05-01T05:29:05.438Z,97441.50
2019-05-01T05:31:37.796Z,97454.00
2019-05-01T05:34:11.918Z,97457.05
2019-05-01T05:36:45.038Z,97452.45
2019-05-01T05:39:32.480Z,97454.16
2019-05-01T05:42:05.853Z,97450.17
2019-05-01T05:44:37.839Z,97452.17
2019-05-01T05:47:10.038Z,97454.56
2019-05-01T05:49:41.772Z,97449.42
2019-05-01T05:52:45.110Z,97448.06
2019-05-01T05:55:35.526Z,97443.86
2019-05-01T05:58:21.983Z,97442.83
2019-05-01T06:01:18.669Z,97443.47
2019-05-01T06:04:12.383Z,97443.78
2019-05-01T06:07:00.562Z,97450.77
2019-05-01T06:09:52.721Z,97448.75
2019-05-01T06:12:46.276Z,97445.23
2019-05-01T06:15:49.006Z,97443.64
2019-05-01T06:18:26.443Z,97449.30
2019-05-01T06:21:17.369Z,97454.47
2019-05-01T06:24:06.320Z,97466.86
2019-05-01T06:26:37.425Z,97463.06
2019-05-01T06:29:08.269Z,97464.14
2019-05-01T06:31:40.228Z,97452.51
2019-05-01T06:34:11.794Z,97465.27
2019-05-01T06:36:44.282Z,97461.80
2019-05-01T06:39:17.008Z,97478.13
2019-05-01T06:41:48.951Z,97477.58
2019-05-01T06:44:43.904Z,97480.30
2019-05-01T06:47:38.356Z,97478.20
2019-05-01T06:50:32.130Z,97480.12
2019-05-01T06:53:05.948Z,97471.17
2019-05-01T06:55:38.235Z,97483.45
2019-05-01T06:58:10.057Z,97470.73
2019-05-01T07:00:43.053Z,97479.70
2019-05-01T07:03:15.741Z,97484.89
2019-05-01T07:05:48.992Z,97484.66
2019-05-01T07:08:24.794Z,97475.20
2019-05-01T07:10:54.262Z,97481.20
2019-05-01T07:13:25.905Z,97479.07
2019-05-01T07:16:00.375Z,97482.60
2019-05-01T07:18:30.961Z,97481.81
2019-05-01T07:21:02.567Z,97486.69
2019-05-01T07:23:34.249Z,97490.50
2019-05-01T07:26:09.924Z,97490.22
2019-05-01T07:28:40.768Z,97498.36
2019-05-01T07:31:14.456Z,97485.32
2019-05-01T07:33:51.323Z,97485.62
2019-05-01T07:36:21.030Z,97480.72
2019-05-01T07:38:52.862Z,97488.89
2019-05-01T07:41:24.612Z,97486.38
2019-05-01T07:44:16.521Z,97493.92
2019-05-01T07:46:56.298Z,97498.33
2019-05-01T07:49:47.760Z,97493.86
2019-05-01T07:52:18.752Z,97499.91
2019-05-01T07:54:51.766Z,97509.09
2019-05-01T07:57:24.860Z,97485.38
2019-05-01T07:59:58.269Z,97503.52
2019-05-01T08:02:31.090Z,97523.34
2019-05-01T08:05:04.964Z,97510.53
2019-05-01T08:07:37.774Z,97521.45
2019-05-01T08:10:09.616Z,97535.65
2019-05-01T08:12:41.170Z,97524.50
2019-05-01T08:15:12.783Z,97518.13
2019-05-01T08:17:48.785Z,97547.36
2019-05-01T08:20:35.669Z,97509.23
2019-05-01T08:23:07.669Z,97521.71
2019-05-01T08:25:39.368Z,97527.70
2019-05-01T08:28:16.656Z,97536.94
2019-05-01T08:31:01.861Z,97532.86
2019-05-01T08:33:52.222Z,97482.22
2019-05-01T08:36:23.741Z,97493.81
2019-05-01T08:38:55.368Z,97521.34
2019-05-01T08:41:31.692Z,97516.18
2019-05-01T08:44:00.531Z,97521.83
2019-05-01T08:46:51.017Z,97520.18
2019-05-01T08:49:30.649Z,97520.11
2019-05-01T08:52:04.877Z,97552.03
2019-05-01T08:54:35.556Z,97546.89
2019-05-01T08:57:08.048Z,97528.33
2019-05-01T08:59:39.673Z,97562.53
2019-05-01T09:02:11.312Z,97526.42
2019-05-01T09:04:43.061Z,97515.53
2019-05-01T09:07:19.142Z,97552.70
2019-05-01T09:09:48.325Z,97518.88
2019-05-01T09:12:19.918Z,97523.70
2019-05-01T09:14:51.454Z,97529.52
2019-05-01T09:17:23.191Z,97535.30
2019-05-01T09:19:54.730Z,97506.96
2019-05-01T09:22:26.497Z,97513.99
2019-05-01T09:24:59.914Z,97526.58
2019-05-01T09:27:55.478Z,97532.72
2019-05-01T09:30:31.130Z,97553.39
2019-05-01T09:33:02.798Z,97536.58
2019-05-01T09:35:34.454Z,97527.76
2019-05-01T09:38:06.049Z,97537.13
2019-05-01T09:40:37.867Z,97515.81
2019-05-01T09:43:09.476Z,97477.86
2019-05-01T09:45:41.074Z,97535.31
2019-05-01T09:48:12.754Z,97509.03
2019-05-01T09:50:48.982Z,97495.94
2019-05-01T09:53:29.738Z,97522.23
2019-05-01T09:56:07.678Z,97480.92
2019-05-01T09:58:38.915Z,97520.17
2019-05-01T10:01:11.709Z,97514.84
2019-05-01T10:03:44.863Z,97518.88
2019-05-01T10:06:18.840Z,97487.27
2019-05-01T10:08:50.554Z,97488.56
2019-05-01T10:11:22.108Z,97532.34
2019-05-01T10:13:58.284Z,97508.58
2019-05-01T10:16:26.981Z,97503.74
2019-05-01T10:18:58.697Z,97474.53
2019-05-01T10:21:30.229Z,97515.15
2019-05-01T10:24:01.784Z,97499.84
2019-05-01T10:26:35.053Z,97500.57
2019-05-01T10:29:21.398Z,97512.23
2019-05-01T10:32:16.878Z,97478.31
2019-05-01T10:34:57.053Z,97494.20
2019-05-01T10:37:33.427Z,97516.86
2019-05-01T10:40:01.978Z,97511.89
2019-05-01T10:42:34.815Z,97513.69
2019-05-01T10:45:06.677Z,97489.94
2019-05-01T10:47:38.429Z,97499.84
2019-05-01T10:50:10.353Z,97479.21
2019-05-01T10:52:41.889Z,97488.25
2019-05-01T10:55:13.599Z,97494.22
2019-05-01T10:57:45.091Z,97475.70
2019-05-01T11:00:17.035Z,97482.17
2019-05-01T11:02:48.678Z,97462.63
2019-05-01T11:05:20.302Z,97461.50
2019-05-01T11:07:51.817Z,97489.59
2019-05-01T11:10:23.372Z,97470.17
2019-05-01T11:12:55.040Z,97451.99
2019-05-01T11:15:26.683Z,97469.87
2019-05-01T11:17:58.400Z,97471.42
2019-05-01T11:20:31.223Z,97488.75
2019-05-01T11:23:02.756Z,97478.59
2019-05-01T11:25:35.015Z,97482.97
2019-05-01T11:28:07.810Z,97455.06
2019-05-01T11:30:39.408Z,97490.95
2019-05-01T11:33:42.938Z,97478.25
2019-05-01T11:36:34.510Z,97487.39
2019-05-01T11:39:28.024Z,97478.78
2019-05-01T11:42:04.192Z,97499.61
2019-05-01T11:44:35.817Z,97461.31
2019-05-01T11:47:07.480Z,97462.83
2019-05-01T11:49:39.053Z,97470.92
2019-05-01T11:52:10.715Z,97477.44
2019-05-01T11:54:42.406Z,97467.06
2019-05-01T11:57:14.046Z,97468.23
2019-05-01T11:59:45.630Z,97424.55
2019-05-01T12:02:17.296Z,97452.23
2019-05-01T12:04:48.965Z,97436.30
2019-05-01T12:07:20.575Z,97439.92
2019-05-01T12:09:52.117Z,97429.81
2019-05-01T12:12:25.432Z,97441.13
2019-05-01T12:14:56.957Z,97427.33
2019-05-01T12:17:33.721Z,97440.03
2019-05-01T12:20:05.996Z,97432.37
2019-05-01T12:22:37.644Z,97437.17
2019-05-01T12:25:09.343Z,97430.69
2019-05-01T12:27:40.922Z,97419.13
2019-05-01T12:30:15.683Z,97424.47
2019-05-01T12:32:47.238Z,97433.67
2019-05-01T12:35:18.833Z,97437.12
2019-05-01T12:37:50.987Z,97421.73
2019-05-01T12:40:23.773Z,97432.22
2019-05-01T12:42:55.529Z,97423.06
2019-05-01T12:45:27.247Z,97413.18
2019-05-01T12:48:04.113Z,97428.38
2019-05-01T12:50:37.219Z,97436.80
2019-05-01T12:53:28.759Z,97428.07
2019-05-01T12:56:17.924Z,97427.77
2019-05-01T12:58:50.915Z,97436.03
2019-05-01T13:01:22.474Z,97436.12
2019-05-01T13:03:54.106Z,97424.93
2019-05-01T13:06:25.642Z,97451.92
2019-05-01T13:08:57.232Z,97458.56
2019-05-01T13:11:28.978Z,97424.95
2019-05-01T13:14:00.852Z,97431.59
2019-05-01T13:16:32.431Z,97418.19
2019-05-01T13:19:04.120Z,97436.94
2019-05-01T13:21:35.747Z,97398.98
2019-05-01T13:24:07.737Z,97401.33
2019-05-01T13:26:47.148Z,97400.63
2019-05-01T13:29:32.737Z,97390.31
2019-05-01T13:32:26.251Z,97391.16
2019-05-01T13:34:57.902Z,97409.11
2019-05-01T13:37:29.498Z,97404.59
2019-05-01T13:40:01.143Z,97387.47
2019-05-01T13:42:32.915Z,97382.98
2019-05-01T13:45:05.357Z,97378.93
2019-05-01T13:47:37.047Z,97418.52
2019-05-01T13:50:09.436Z,97387.10
2019-05-01T13:52:41.242Z,97388.01
2019-05-01T13:55:13.516Z,97377.66
2019-05-01T13:57:45.213Z,97391.56
2019-05-01T14:00:18.023Z,97384.98
2019-05-01T14:02:49.799Z,97378.89
2019-05-01T14:05:21.474Z,97374.46
2019-05-01T14:07:52.974Z,97384.56
2019-05-01T14:10:24.603Z,97392.14
2019-05-01T14:12:56.225Z,97370.41
2019-05-01T14:15:27.755Z,97382.67
2019-05-01T14:17:59.312Z,97375.61
2019-05-01T14:20:48.234Z,97403.31
2019-05-01T14:23:25.387Z,97368.88
2019-05-01T14:26:06.614Z,97381.69
2019-05-01T14:28:38.342Z,97411.13
2019-05-01T14:31:09.846Z,97376.83
2019-05-01T14:33:41.510Z,97391.76
2019-05-01T14:36:13.096Z,97386.78
2019-05-01T14:38:46.424Z,97374.34
2019-05-01T14:41:17.919Z,97385.92
2019-05-01T14:43:49.571Z,97377.48
2019-05-01T14:46:21.160Z,97371.13
2019-05-01T14:48:52.718Z,97356.37
2019-05-01T14:51:24.279Z,97380.44
2019-05-01T14:53:55.880Z,97373.83
2019-05-01T14:56:27.471Z,97367.59
2019-05-01T14:58:59.598Z,97367.44
2019-05-01T15:01:31.181Z,97385.17
2019-05-01T15:04:02.870Z,97374.06
2019-05-01T15:06:34.475Z,97374.39
2019-05-01T15:09:08.337Z,97375.64
2019-05-01T15:11:41.146Z,97382.42
2019-05-01T15:14:30.488Z,97375.98
2019-05-01T15:17:18.911Z,97369.49
2019-05-01T15:20:03.165Z,97365.38
2019-05-01T15:22:36.349Z,97380.75
2019-05-01T15:25:08.174Z,97384.41
2019-05-01T15:27:39.823Z,97386.41
2019-05-01T15:30:13.198Z,97382.13
2019-05-01T15:32:44.705Z,97363.17
2019-05-01T15:35:16.534Z,97394.95
2019-05-01T15:37:56.595Z,97368.02
2019-05-01T15:40:28.797Z,97392.43
2019-05-01T15:43:23.677Z,97362.64
2019-05-01T15:45:55.275Z,97351.92
2019-05-01T15:48:26.984Z,97343.91
2019-05-01T15:50:58.748Z,97360.75
2019-05-01T15:53:30.676Z,97346.44
2019-05-01T15:56:02.265Z,97371.02
2019-05-01T15:58:34.034Z,97344.12
2019-05-01T16:01:05.530Z,97340.12
2019-05-01T16:03:37.165Z,97347.29
2019-05-01T16:06:08.733Z,97337.55
2019-05-01T16:08:40.320Z,97341.81
2019-05-01T16:11:19.926Z,97351.42
2019-05-01T16:13:51.502Z,97337.49
2019-05-01T16:16:23.283Z,97355.19
2019-05-01T16:18:54.859Z,97326.18
2019-05-01T16:21:26.929Z,97345.05
2019-05-01T16:23:58.474Z,97354.87
2019-05-01T16:26:30.370Z,97344.25
2019-05-01T16:29:02.004Z,97339.95
2019-05-01T16:31:33.538Z,97334.28
2019-05-01T16:34:05.198Z,97343.29
2019-05-01T16:36:36.710Z,97334.33
2019-05-01T16:39:42.799Z,97333.87
2019-05-01T16:42:14.434Z,97364.11
2019-05-01T16:44:45.901Z,97332.00
2019-05-01T16:47:17.705Z,97336.40
2019-05-01T16:49:49.463Z,97339.25
2019-05-01T16:52:25.210Z,97342.67
2019-05-01T16:54:59.323Z,97341.92
2019-05-01T16:57:30.281Z,97341.64
2019-05-01T17:00:02.142Z,97344.05
2019-05-01T17:03:00.507Z,97342.09
2019-05-01T17:06:09.197Z,97348.09
2019-05-01T17:08:52.991Z,97347.02
2019-05-01T17:11:28.131Z,97332.91
2019-05-01T17:14:00.152Z,97347.73
2019-05-01T17:16:31.733Z,97345.23
2019-05-01T17:19:03.946Z,97340.44
2019-05-01T17:42:39.207Z,97339.58
2019-05-01T17:45:11.444Z,97344.30
2019-05-01T17:47:43.621Z,97345.27
2019-05-01T17:50:16.381Z,97344.81
2019-05-01T17:52:48.886Z,97353.71
2019-05-01T17:55:20.726Z,97348.77
2019-05-01T17:57:52.816Z,97346.08
2019-05-01T18:00:46.812Z,97347.09
2019-05-01T18:03:52.588Z,97350.17
2019-05-01T18:06:27.583Z,97343.99
2019-05-01T18:09:03.266Z,97347.23
2019-05-01T18:11:34.189Z,97348.30
2019-05-01T18:14:06.181Z,97348.88
2019-05-01T18:16:39.754Z,97356.09
2019-05-01T18:19:15.324Z,97350.09
2019-05-01T18:21:52.232Z,97355.36
2019-05-01T18:24:47.329Z,97358.36
2019-05-01T18:27:36.959Z,97359.48
2019-05-01T18:30:15.948Z,97363.14
2019-05-01T18:32:46.923Z,97359.23
2019-05-01T18:35:19.146Z,97371.64
2019-05-01T18:38:06.138Z,97371.46
2019-05-01T18:41:04.086Z,97369.08
2019-05-01T18:43:35.885Z,97376.05
2019-05-01T18:46:09.382Z,97381.03
2019-05-01T18:48:41.544Z,97378.37
2019-05-01T18:51:16.255Z,97378.37
2019-05-01T18:53:47.112Z,97379.30
2019-05-01T18:56:18.752Z,97376.38
2019-05-01T18:58:50.505Z,97379.10
2019-05-01T19:01:22.718Z,97382.72
2019-05-01T19:03:54.475Z,97386.28
2019-05-01T19:06:40.375Z,97384.16
2019-05-01T19:09:00.369Z,97378.48
2019-05-01T19:11:33.691Z,97381.52
2019-05-01T19:14:06.100Z,97376.63
2019-05-01T19:16:40.057Z,97382.33
2019-05-01T19:19:12.760Z,97382.62
2019-05-01T19:21:46.519Z,97384.27
2019-05-01T19:24:18.624Z,97382.66
2019-05-01T19:26:50.482Z,97380.77
2019-05-01T19:29:26.877Z,97376.48
2019-05-01T19:31:55.645Z,97382.19
2019-05-01T19:34:27.784Z,97386.55
2019-05-01T19:37:01.401Z,97381.38
2019-05-01T19:39:43.574Z,97383.84
2019-05-01T19:42:06.943Z,97385.27
2019-05-01T19:44:38.750Z,97381.19
2019-05-01T19:47:11.114Z,97384.22
2019-05-01T19:49:43.119Z,97385.57
2019-05-01T19:52:14.890Z,97384.44
2019-05-01T19:54:46.855Z,97382.31
2019-05-01T19:57:18.733Z,97383.62
2019-05-01T19:59:50.743Z,97388.87
2019-05-01T20:02:24.067Z,97386.73
2019-05-01T20:04:56.539Z,97389.78
2019-05-01T20:07:28.146Z,97401.23
2019-05-01T20:10:00.107Z,97395.81
2019-05-01T20:12:32.345Z,97389.31
2019-05-01T20:15:05.039Z,97392.32
2019-05-01T20:17:37.204Z,97398.58
2019-05-01T20:20:09.288Z,97399.94
2019-05-01T20:22:41.273Z,97433.33
2019-05-01T20:25:14.698Z,97485.77
2019-05-01T20:27:52.989Z,97453.48
2019-05-01T20:30:21.608Z,97452.18
2019-05-01T20:32:53.334Z,97414.48
2019-05-01T20:35:28.440Z,97423.75
2019-05-01T20:37:58.590Z,97413.44
2019-05-01T20:40:31.327Z,97412.92
2019-05-01T20:43:05.819Z,97405.85
2019-05-01T20:45:38.340Z,97396.90
2019-05-01T20:48:10.743Z,97402.63
2019-05-01T20:50:42.697Z,97402.34
2019-05-01T20:53:15.076Z,97401.79
2019-05-01T20:55:53.797Z,97392.58
2019-05-01T20:58:25.678Z,97381.99
2019-05-01T21:01:02.412Z,97377.11
2019-05-01T21:03:35.546Z,97379.27
2019-05-01T21:06:28.365Z,97386.33
2019-05-01T21:09:21.643Z,97379.55
2019-05-01T21:12:05.143Z,97379.27
2019-05-01T21:14:30.185Z,97378.19
2019-05-01T21:17:01.876Z,97378.19
2019-05-01T21:19:35.882Z,97376.84
2019-05-01T21:22:06.952Z,97371.95
2019-05-01T21:24:38.897Z,97369.53
2019-05-01T21:27:10.880Z,97365.17
2019-05-01T21:29:44.511Z,97368.70
2019-05-01T21:32:18.251Z,97367.63
2019-05-01T21:34:50.085Z,97363.00
2019-05-01T21:37:21.748Z,97371.70
2019-05-01T21:39:55.585Z,97360.04
2019-05-01T21:42:27.271Z,97361.92
2019-05-01T21:44:59.149Z,97361.93
2019-05-01T21:47:31.109Z,97361.93
2019-05-01T21:50:03.335Z,97363.28
2019-05-01T21:52:35.555Z,97361.65
2019-05-01T21:55:07.658Z,97364.64
2019-05-01T21:57:40.783Z,97360.30
2019-05-01T22:00:15.490Z,97353.80
2019-05-01T22:02:48.625Z,97356.50
2019-05-01T22:05:20.263Z,97355.69
2019-05-01T22:07:52.373Z,97347.30
2019-05-01T22:10:26.460Z,97341.05
2019-05-01T22:12:58.144Z,97338.34
2019-05-01T22:15:35.047Z,97335.63
2019-05-01T22:18:12.771Z,97333.74
2019-05-01T22:20:51.784Z,97337.80
2019-05-01T22:23:25.371Z,97334.82
2019-05-01T22:25:57.796Z,97338.07
2019-05-01T22:28:35.300Z,97333.75
2019-05-01T22:31:21.852Z,97326.97
2019-05-01T22:33:54.731Z,97326.42
2019-05-01T22:36:26.603Z,97323.43
2019-05-01T22:39:02.278Z,97320.45
2019-05-01T22:41:33.710Z,97313.14
2019-05-01T22:44:06.109Z,97319.91
2019-05-01T22:46:40.533Z,97319.65
2019-05-01T22:49:12.349Z,97311.78
2019-05-01T22:51:44.367Z,97307.44
2019-05-01T22:54:16.392Z,97312.87
2019-05-01T22:56:48.124Z,97305.00
2019-05-01T22:59:20.356Z,97308.25
2019-05-01T23:01:54.513Z,97300.92
2019-05-01T23:04:26.551Z,97294.98
2019-05-01T23:06:58.340Z,97289.56
2019-05-01T23:09:31.692Z,97290.09
2019-05-01T23:12:03.433Z,97284.97
2019-05-01T23:14:35.607Z,97288.20
2019-05-01T23:17:34.896Z,97283.06
2019-05-01T23:20:08.356Z,97279.53
2019-05-01T23:22:40.335Z,97282.52
2019-05-01T23:25:13.551Z,97282.25
2019-05-01T23:27:45.613Z,97303.37
2019-05-01T23:30:19.337Z,97303.91
2019-05-01T23:32:51.088Z,97310.14
2019-05-01T23:35:22.766Z,97310.94
2019-05-01T23:37:54.388Z,97306.34
2019-05-01T23:40:27.206Z,97303.63
2019-05-01T23:42:59.263Z,97305.77
2019-05-01T23:45:30.840Z,97298.75
2019-05-01T23:48:02.553Z,97297.33
2019-05-01T23:50:34.196Z,97293.58
2019-05-01T23:53:09.082Z,97288.17
2019-05-01T23:55:39.616Z,97281.14
2019-05-01T23:58:11.260Z,97283.56
